METAR AND TAF INFORMATION
METAR FOR CYPD
ADDS - METARS form results

(0612 UTC 27 April 2018)
Data provider http://aviationweather.gov/adds/metars/
 
METAR text: CYPD 270600Z AUTO 19009G16KT 9SM OVC006 09/09 A2971 RMK SLP065
Conditions at: CYPD (PORT HAWKESBURY , NS, CA) observed 0600 UTC 27 April 2018
Temperature: 9.0°C (48°F)
Dewpoint: 9.0°C (48°F) [RH = 100%]
Pressure (altimeter): 29.71 inches Hg (1006.2 mb)
[Sea-level pressure: 1006.5 mb]
Winds: from the S (190 degrees) at 10 MPH (9 knots; 4.7 m/s)
gusting to 18 MPH (16 knots; 8.3 m/s)
Visibility: 9 miles (14 km)
Ceiling: 600 feet AGL
Clouds: overcast cloud deck at 600 feet AGL
Weather: no significant weather observed at this time

 AIRPORT MAP

 RUNWAY INFORMATION
Runway 11 Runway length 5000 ft Runway width 150 ft
Runway elevation 334 ft Runway displaced threshold 0 ft Runway heading 90
Runway 29 Runway length 5000 ft Runway width 150 ft
Runway elevation 375 ft Runway displaced threshold 0 ft Runway heading 270

 AIRPORT FREQUENCIES
Type RDO Name HALIFAX RD Frequency 126.7 MHZ
Type UNIC Name ATF/UNICOM Frequency 122.8 MHZ

 AIRPORT NEAR NAVIGATION AIDS
Type NDB Name Port Hawkesbury Frequency 229 KHZ



Powered by Virtual Airlines Manager [v2.6.2]